Time;durP1;ratioP1;P1;durP2;ratioP2;P2;SDS_P1;SDS_P2;PMS_P1;PMS_P2;Temp;Humidity;BMP_temperature;BMP_pressure;BME280_temperature;BME280_humidity;BME280_pressure;Samples;Min_cycle;Max_cycle;Signal;HPM_P1;HPM_P2
2021/06/21 00:01:39;;;;;;;0.95;0.28;;;;;;;21.45;60.73;99338.69;1666289;83;22408;-55
2021/06/21 00:04:05;;;;;;;0.70;0.20;;;;;;;21.45;60.75;99346.91;1668813;83;21082;-54
2021/06/21 00:06:33;;;;;;;1.82;0.20;;;;;;;21.44;60.78;99346.04;1670022;83;21109;-54
2021/06/21 00:08:59;;;;;;;2.15;0.23;;;;;;;21.45;60.78;99342.80;1672830;83;20959;-53
2021/06/21 00:11:27;;;;;;;0.47;0.20;;;;;;;21.44;60.86;99339.70;1671969;83;21041;-54
2021/06/21 00:13:53;;;;;;;1.30;0.20;;;;;;;21.43;60.85;99343.48;1669773;83;21154;-54
2021/06/21 00:16:21;;;;;;;0.80;0.30;;;;;;;21.40;60.87;99342.41;1668709;83;21066;-54
2021/06/21 00:18:48;;;;;;;0.98;0.20;;;;;;;21.37;60.92;99340.83;1666643;83;21098;-55
2021/06/21 00:21:16;;;;;;;0.80;0.20;;;;;;;21.36;61.04;99337.73;1669077;83;21136;-53
2021/06/21 00:23:44;;;;;;;1.70;0.30;;;;;;;21.34;61.14;99343.02;1672024;83;21145;-53
2021/06/21 00:26:12;;;;;;;2.35;0.20;;;;;;;21.30;61.23;99335.61;1665913;83;21084;-54
2021/06/21 00:28:38;;;;;;;0.40;0.30;;;;;;;21.26;61.31;99340.19;1667819;83;21331;-53
2021/06/21 00:31:05;;;;;;;0.55;0.20;;;;;;;21.25;61.37;99339.83;1665695;83;22933;-54
2021/06/21 00:33:32;;;;;;;1.67;0.30;;;;;;;21.26;61.48;99336.08;1677642;83;21651;-54
2021/06/21 00:35:58;;;;;;;0.30;0.20;;;;;;;21.25;61.58;99337.95;1668312;83;21114;-54
2021/06/21 00:38:24;;;;;;;1.82;0.20;;;;;;;21.27;61.64;99341.88;1666187;83;21104;-53
2021/06/21 00:40:51;;;;;;;1.15;0.20;;;;;;;21.27;61.62;99335.90;1667495;83;21132;-54
2021/06/21 00:43:17;;;;;;;4.12;0.50;;;;;;;21.28;61.68;99340.37;1668973;83;21475;-54
2021/06/21 00:45:44;;;;;;;2.85;0.30;;;;;;;21.28;61.64;99336.26;1671626;83;21706;-54
2021/06/21 00:48:12;;;;;;;0.53;0.30;;;;;;;21.27;61.58;99332.30;1671569;83;21551;-54
2021/06/21 00:50:39;;;;;;;1.10;0.25;;;;;;;21.25;61.56;99336.59;1668731;83;21257;-54
2021/06/21 00:53:05;;;;;;;0.55;0.20;;;;;;;21.23;61.57;99331.76;1672494;83;22103;-54
2021/06/21 00:55:32;;;;;;;3.40;0.30;;;;;;;21.19;61.65;99331.69;1645082;83;21560;-54
2021/06/21 00:57:58;;;;;;;0.68;0.28;;;;;;;21.17;61.71;99331.48;1669752;83;21073;-54
2021/06/21 01:00:26;;;;;;;2.80;0.30;;;;;;;21.15;61.76;99331.63;1670352;83;21113;-55
2021/06/21 01:02:53;;;;;;;0.68;0.20;;;;;;;21.11;61.83;99324.20;1671429;83;20975;-54
2021/06/21 01:05:26;;;;;;;2.20;0.30;;;;;;;21.09;61.87;99329.50;1672406;83;21038;-54
2021/06/21 01:07:52;;;;;;;0.45;0.20;;;;;;;21.08;61.97;99325.03;1674810;83;21101;-54
2021/06/21 01:10:23;;;;;;;0.65;0.20;;;;;;;21.06;62.02;99324.31;1670235;83;21384;-54
2021/06/21 01:13:11;;;;;;;1.95;0.30;;;;;;;21.05;62.10;99321.22;1671015;83;21129;-54
2021/06/21 01:15:54;;;;;;;0.75;0.20;;;;;;;21.04;62.17;99321.73;1667623;83;21061;-56
2021/06/21 01:18:25;;;;;;;3.15;0.25;;;;;;;21.02;62.18;99316.03;1668218;83;21626;-57
2021/06/21 01:21:26;;;;;;;1.37;0.20;;;;;;;20.99;62.25;99322.70;1671475;83;21053;-57
2021/06/21 01:24:18;;;;;;;2.15;0.30;;;;;;;20.97;62.22;99323.34;1666336;83;21161;-57
2021/06/21 01:27:32;;;;;;;4.10;0.30;;;;;;;20.94;62.23;99321.40;1670797;83;21125;-58
2021/06/21 01:30:10;;;;;;;1.15;0.20;;;;;;;20.91;62.30;99319.84;1706325;81;21153;-57
2021/06/21 01:32:58;;;;;;;1.70;0.20;;;;;;;20.85;62.39;99316.83;1727361;80;20935;-56
2021/06/21 01:35:37;;;;;;;1.87;0.20;;;;;;;20.81;62.52;99311.31;1724654;80;20906;-57
2021/06/21 01:38:15;;;;;;;2.30;0.20;;;;;;;20.78;62.55;99313.83;1724314;80;20990;-57
2021/06/21 01:40:44;;;;;;;1.17;0.20;;;;;;;20.76;62.61;99308.50;1726411;80;21953;-56
2021/06/21 01:45:54;;;;;;;0.50;0.20;;;;;;;20.82;62.69;99300.23;1779802;78;28223;-54
2021/06/21 01:48:23;;;;;;;1.95;0.20;;;;;;;20.80;62.62;99309.59;1740006;80;21499;-56
2021/06/21 01:50:52;;;;;;;0.40;0.20;;;;;;;20.82;62.62;99304.84;1744207;80;22660;-56
2021/06/21 01:53:20;;;;;;;2.30;0.30;;;;;;;20.80;62.53;99300.87;1730601;80;20915;-56
2021/06/21 01:56:01;;;;;;;0.37;0.20;;;;;;;20.80;62.50;99306.34;1708364;81;20914;-56
2021/06/21 01:58:29;;;;;;;1.00;0.20;;;;;;;20.78;62.48;99301.52;1705679;81;20878;-57
2021/06/21 02:00:56;;;;;;;0.20;0.20;;;;;;;20.75;62.48;99296.38;1708522;81;20942;-55
2021/06/21 02:03:22;;;;;;;4.80;0.30;;;;;;;20.73;62.55;99304.72;1704554;81;21089;-55
2021/06/21 02:05:50;;;;;;;0.20;0.20;;;;;;;20.71;62.59;99297.66;1714741;81;20954;-56
2021/06/21 02:08:17;;;;;;;2.35;0.23;;;;;;;20.70;62.61;99294.06;1695772;82;21028;-56
2021/06/21 02:10:51;;;;;;;4.47;0.15;;;;;;;20.70;62.66;99298.67;1700864;82;21041;-56
2021/06/21 02:13:19;;;;;;;0.55;0.30;;;;;;;20.71;62.69;99294.42;1701461;81;22176;-57
2021/06/21 02:15:46;;;;;;;0.20;0.20;;;;;;;20.72;62.68;99298.03;1702101;81;21309;-55
2021/06/21 02:18:13;;;;;;;0.20;0.20;;;;;;;20.74;62.60;99300.12;1700665;81;21599;-56
2021/06/21 02:20:40;;;;;;;0.20;0.20;;;;;;;20.75;62.59;99298.61;1688615;82;21054;-56
2021/06/21 02:23:07;;;;;;;5.58;0.25;;;;;;;20.75;62.50;99301.34;1709051;81;21124;-56
2021/06/21 02:25:34;;;;;;;1.15;0.23;;;;;;;20.76;62.49;99303.54;1698322;82;21141;-56
2021/06/21 02:28:00;;;;;;;0.95;0.13;;;;;;;20.76;62.45;99307.13;1695675;82;21087;-57
2021/06/21 02:30:26;;;;;;;0.50;0.20;;;;;;;20.77;62.45;99303.90;1679162;82;21109;-56
2021/06/21 02:32:53;;;;;;;2.00;0.20;;;;;;;20.77;62.40;99307.50;1703029;81;21612;-56
2021/06/21 02:35:19;;;;;;;2.83;0.20;;;;;;;20.77;62.68;99306.63;1704417;81;21196;-56
2021/06/21 02:37:46;;;;;;;0.53;0.20;;;;;;;20.76;62.65;99305.77;1704993;81;21040;-57
2021/06/21 02:40:14;;;;;;;1.95;0.47;;;;;;;20.77;62.89;99306.63;1705438;81;21088;-57
2021/06/21 02:42:41;;;;;;;0.98;0.20;;;;;;;20.77;63.05;99310.23;1691228;81;21045;-56
2021/06/21 02:45:09;;;;;;;0.23;0.20;;;;;;;20.80;62.89;99312.32;1683633;83;21148;-56
2021/06/21 02:47:35;;;;;;;1.15;0.30;;;;;;;20.82;63.18;99311.67;1677242;83;21454;-56
2021/06/21 02:50:04;;;;;;;0.60;0.20;;;;;;;20.84;63.32;99304.19;1707843;82;21520;-57
2021/06/21 02:53:02;;;;;;;1.62;0.30;;;;;;;20.87;63.25;99309.34;1715876;82;21148;-56
2021/06/21 02:56:09;;;;;;;2.60;0.30;;;;;;;20.88;63.13;99306.45;1675235;83;21034;-56
2021/06/21 02:58:40;;;;;;;4.55;0.20;;;;;;;20.91;62.93;99310.78;1705398;82;21030;-55
2021/06/21 03:01:09;;;;;;;1.62;0.30;;;;;;;20.92;62.87;99305.67;1712806;82;21099;-54
2021/06/21 03:03:38;;;;;;;1.05;0.20;;;;;;;20.93;62.90;99304.12;1700324;82;21044;-56
2021/06/21 03:06:08;;;;;;;1.27;0.20;;;;;;;20.94;63.05;99304.48;1715547;82;22167;-55
2021/06/21 03:08:34;;;;;;;2.90;0.20;;;;;;;20.94;62.93;99313.19;1674442;83;21065;-56
2021/06/21 03:11:01;;;;;;;1.95;0.20;;;;;;;20.93;62.79;99311.47;1679198;83;21085;-56
2021/06/21 03:13:28;;;;;;;0.30;0.20;;;;;;;20.95;62.96;99313.05;1708403;82;21085;-55
2021/06/21 03:15:55;;;;;;;4.03;0.30;;;;;;;20.98;62.79;99314.63;1676854;83;21113;-56
2021/06/21 03:18:22;;;;;;;0.20;0.20;;;;;;;21.00;62.71;99314.84;1676711;83;21229;-56
2021/06/21 03:20:55;;;;;;;0.75;0.20;;;;;;;21.03;62.62;99315.03;1674572;83;21041;-56
2021/06/21 03:23:24;;;;;;;0.63;0.30;;;;;;;21.07;62.76;99317.33;1702520;82;21048;-57
2021/06/21 03:25:52;;;;;;;0.57;0.20;;;;;;;21.11;62.61;99316.00;1708362;82;21164;-55
2021/06/21 03:28:18;;;;;;;0.60;0.30;;;;;;;21.15;62.68;99317.94;1709567;82;21018;-55
2021/06/21 03:30:49;;;;;;;0.50;0.30;;;;;;;21.20;62.33;99322.98;1711971;82;22509;-56
2021/06/21 03:33:16;;;;;;;0.75;0.30;;;;;;;21.23;62.24;99324.92;1703745;82;21109;-55
2021/06/21 03:35:42;;;;;;;3.35;0.30;;;;;;;21.25;62.29;99313.32;1709405;82;21038;-56
2021/06/21 03:38:21;;;;;;;3.45;0.30;;;;;;;21.29;62.16;99309.75;1704294;82;21567;-55
2021/06/21 03:40:49;;;;;;;0.78;0.30;;;;;;;21.31;61.86;99318.17;1706590;82;20972;-56
2021/06/21 03:43:20;;;;;;;0.53;0.20;;;;;;;21.31;61.83;99311.33;1709424;82;21122;-56
2021/06/21 03:45:48;;;;;;;1.67;0.20;;;;;;;21.34;61.75;99310.17;1673571;83;21128;-55
2021/06/21 03:48:14;;;;;;;0.30;0.20;;;;;;;21.36;61.43;99310.35;1719773;81;21066;-56
2021/06/21 03:50:41;;;;;;;2.47;0.30;;;;;;;21.41;61.57;99308.55;1714967;81;21112;-56
2021/06/21 03:53:07;;;;;;;1.30;0.20;;;;;;;21.45;61.68;99310.80;1678007;83;21323;-55
2021/06/21 03:55:34;;;;;;;0.70;0.20;;;;;;;21.52;61.67;99312.45;1714013;81;22785;-56
2021/06/21 03:58:00;;;;;;;0.75;0.30;;;;;;;21.58;61.50;99306.84;1716473;81;21307;-56
2021/06/21 04:00:29;;;;;;;0.30;0.20;;;;;;;21.64;61.18;99300.23;1677571;83;22176;-56
2021/06/21 04:02:59;;;;;;;1.72;0.25;;;;;;;21.72;61.07;99304.94;1676627;84;21026;-56
2021/06/21 04:05:26;;;;;;;2.45;0.20;;;;;;;21.78;61.11;99297.45;1672094;84;21440;-56
2021/06/21 04:07:53;;;;;;;0.60;0.23;;;;;;;21.82;60.96;99298.38;1715777;81;22046;-57
2021/06/21 04:10:23;;;;;;;2.15;0.33;;;;;;;21.87;60.71;99298.75;1716157;81;21429;-56
2021/06/21 04:12:50;;;;;;;2.90;0.30;;;;;;;21.90;60.53;99297.08;1718705;81;21077;-56
2021/06/21 04:15:21;;;;;;;1.65;0.20;;;;;;;21.94;60.42;99296.27;1720191;81;21549;-55
2021/06/21 04:17:47;;;;;;;1.20;0.30;;;;;;;21.97;60.33;99304.66;1719534;81;20919;-56
2021/06/21 04:20:17;;;;;;;3.25;0.70;;;;;;;21.99;59.99;99304.91;1720615;82;21107;-57
2021/06/21 04:22:43;;;;;;;3.02;0.50;;;;;;;22.02;60.09;99303.23;1717214;82;20871;-56
2021/06/21 04:25:12;;;;;;;2.75;0.30;;;;;;;22.05;59.90;99308.37;1683953;83;20977;-56
2021/06/21 04:27:39;;;;;;;1.32;0.30;;;;;;;22.09;59.96;99308.94;1717289;81;20893;-56
2021/06/21 04:30:08;;;;;;;0.88;0.30;;;;;;;22.11;59.73;99305.03;1719570;81;20891;-57
2021/06/21 04:32:34;;;;;;;2.90;0.30;;;;;;;22.14;59.53;99301.95;1717044;81;22684;-56
2021/06/21 04:35:01;;;;;;;1.82;0.30;;;;;;;22.19;59.65;99302.86;1683561;83;20965;-57
2021/06/21 04:37:27;;;;;;;0.40;0.30;;;;;;;22.24;59.75;99307.34;1682989;83;21369;-57
2021/06/21 04:39:53;;;;;;;4.30;0.40;;;;;;;22.29;59.83;99290.44;1681509;83;21032;-56
2021/06/21 04:42:19;;;;;;;4.03;0.30;;;;;;;22.35;59.66;99294.77;1720248;81;20907;-55
2021/06/21 04:44:46;;;;;;;0.78;0.30;;;;;;;22.38;59.52;99291.69;1718724;81;21076;-56
2021/06/21 04:47:13;;;;;;;0.60;0.30;;;;;;;22.43;59.32;99289.85;1711035;82;21390;-57
2021/06/21 04:49:40;;;;;;;1.17;0.20;;;;;;;22.48;59.51;99286.97;1713582;82;20982;-56
2021/06/21 04:52:09;;;;;;;2.30;0.47;;;;;;;22.51;59.00;99288.02;1676863;83;21880;-56
2021/06/21 04:54:35;;;;;;;2.37;0.30;;;;;;;22.54;58.89;99280.00;1714874;82;21896;-56
2021/06/21 04:57:01;;;;;;;2.08;0.35;;;;;;;22.60;58.69;99289.80;1712088;82;21053;-56
2021/06/21 04:59:27;;;;;;;1.80;0.30;;;;;;;22.63;58.63;99289.46;1712535;82;21007;-56
2021/06/21 05:01:54;;;;;;;1.17;0.30;;;;;;;22.71;58.81;99286.45;1708588;82;21356;-57
2021/06/21 05:04:20;;;;;;;1.75;0.30;;;;;;;22.78;58.62;99284.80;1709180;82;21615;-57
2021/06/21 05:06:48;;;;;;;1.45;0.30;;;;;;;22.86;58.33;99280.73;1704975;82;21086;-56
2021/06/21 05:09:15;;;;;;;2.83;0.40;;;;;;;22.92;58.01;99278.19;1706545;82;21230;-56
2021/06/21 05:11:41;;;;;;;0.47;0.20;;;;;;;22.97;57.31;99277.17;1704271;81;21149;-57
2021/06/21 05:14:08;;;;;;;1.82;0.30;;;;;;;23.02;57.45;99282.19;1674509;83;21101;-57
2021/06/21 05:16:34;;;;;;;0.88;0.30;;;;;;;23.07;57.48;99283.91;1706189;82;21089;-57
2021/06/21 05:19:01;;;;;;;1.00;0.30;;;;;;;23.14;57.13;99279.47;1706314;82;21035;-57
2021/06/21 05:21:27;;;;;;;1.62;0.42;;;;;;;23.21;56.80;99272.83;1707363;82;22305;-57
2021/06/21 05:23:54;;;;;;;1.00;0.30;;;;;;;23.27;56.65;99279.02;1674708;84;22333;-58
2021/06/21 05:26:20;;;;;;;0.65;0.28;;;;;;;23.31;56.67;99275.77;1674007;83;21053;-58
2021/06/21 05:28:46;;;;;;;1.67;0.30;;;;;;;23.37;56.42;99274.27;1708222;82;21105;-56
2021/06/21 05:31:13;;;;;;;2.05;0.30;;;;;;;23.41;56.20;99274.26;1712035;82;21095;-57
2021/06/21 05:33:42;;;;;;;2.47;0.30;;;;;;;23.46;56.28;99279.27;1707457;82;23098;-57
2021/06/21 05:36:08;;;;;;;0.68;0.30;;;;;;;23.50;56.20;99276.55;1672647;83;21057;-58
2021/06/21 05:38:36;;;;;;;5.70;0.30;;;;;;;23.55;56.49;99282.42;1708563;82;21023;-58
2021/06/21 05:41:03;;;;;;;0.50;0.30;;;;;;;23.61;56.49;99290.84;1708794;82;21057;-57
2021/06/21 05:43:31;;;;;;;1.47;0.30;;;;;;;23.68;56.00;99295.14;1674921;83;21002;-58
2021/06/21 05:45:57;;;;;;;1.85;0.30;;;;;;;23.72;55.62;99291.05;1709099;82;21731;-56
2021/06/21 05:48:24;;;;;;;0.47;0.30;;;;;;;23.76;55.79;99294.64;1707375;82;21109;-58
2021/06/21 05:50:51;;;;;;;0.90;0.30;;;;;;;23.82;55.92;99286.23;1707115;82;21287;-56
2021/06/21 05:53:18;;;;;;;2.17;0.42;;;;;;;23.89;56.10;99280.42;1708156;82;20982;-56
2021/06/21 05:55:45;;;;;;;2.70;0.40;;;;;;;23.95;55.86;99286.61;1708750;82;21695;-58
2021/06/21 05:58:11;;;;;;;0.45;0.30;;;;;;;23.99;55.36;99281.09;1708911;82;21103;-57
2021/06/21 06:00:39;;;;;;;0.50;0.50;;;;;;;24.01;55.20;99285.91;1706308;82;21093;-56
2021/06/21 06:03:06;;;;;;;2.77;0.30;;;;;;;24.05;55.35;99276.31;1705825;82;21122;-59
2021/06/21 06:05:32;;;;;;;1.02;0.30;;;;;;;24.08;55.01;99268.21;1707951;82;21077;-56
2021/06/21 06:07:59;;;;;;;3.37;0.40;;;;;;;24.12;55.20;99272.35;1707458;82;21729;-57
2021/06/21 06:10:25;;;;;;;3.50;0.30;;;;;;;24.17;55.06;99271.82;1708402;82;21152;-56
2021/06/21 06:12:52;;;;;;;2.58;0.40;;;;;;;24.21;54.88;99274.11;1673855;84;21033;-57
2021/06/21 06:15:18;;;;;;;2.83;0.30;;;;;;;24.22;55.09;99273.08;1709161;82;21082;-57
2021/06/21 06:17:44;;;;;;;1.10;0.50;;;;;;;24.24;55.15;99275.66;1672383;83;21092;-56
2021/06/21 06:20:15;;;;;;;2.02;0.40;;;;;;;24.26;54.73;99262.58;1713489;82;21382;-56
2021/06/21 06:22:41;;;;;;;1.25;0.30;;;;;;;24.30;54.90;99263.45;1709400;82;22958;-57
2021/06/21 06:25:10;;;;;;;0.60;0.30;;;;;;;24.33;54.45;99261.70;1711200;82;21070;-56
2021/06/21 06:27:37;;;;;;;2.10;0.30;;;;;;;24.35;54.38;99255.52;1709363;82;21201;-56
2021/06/21 06:30:06;;;;;;;0.57;0.30;;;;;;;24.36;53.91;99253.12;1714385;82;21030;-57
2021/06/21 06:32:35;;;;;;;1.98;0.30;;;;;;;24.41;54.02;99248.48;1713659;82;20954;-55
2021/06/21 06:35:03;;;;;;;2.77;0.30;;;;;;;24.48;54.15;99251.73;1712229;82;21429;-57
2021/06/21 06:37:29;;;;;;;0.40;0.23;;;;;;;24.55;54.09;99249.14;1704867;82;21148;-57
2021/06/21 06:39:56;;;;;;;1.40;0.30;;;;;;;24.62;53.99;99246.54;1712329;82;21042;-58
2021/06/21 06:42:23;;;;;;;0.90;0.40;;;;;;;24.67;54.35;99248.27;1708561;82;20923;-57
2021/06/21 06:44:49;;;;;;;4.62;0.40;;;;;;;24.72;53.89;99241.70;1708969;82;21362;-57
2021/06/21 06:47:16;;;;;;;2.83;0.30;;;;;;;24.76;53.44;99245.80;1721441;81;21092;-58
2021/06/21 06:49:42;;;;;;;4.08;0.30;;;;;;;24.79;53.64;99236.69;1717718;81;21084;-60
2021/06/21 06:52:09;;;;;;;1.75;0.30;;;;;;;24.88;54.11;99242.51;1720775;81;21738;-56
2021/06/21 06:57:21;;;;;;;0.47;0.25;;;;;;;25.04;53.67;99233.36;1722479;81;21101;-58
2021/06/21 06:59:48;;;;;;;1.42;0.30;;;;;;;25.13;53.82;99225.92;1684492;83;21837;-57
2021/06/21 07:02:22;;;;;;;0.90;0.40;;;;;;;25.19;53.36;99224.67;1667298;84;21545;-56
2021/06/21 07:04:43;;;;;;;1.40;0.28;;;;;;;25.26;53.25;99221.53;1664264;84;21490;-56
2021/06/21 07:07:10;;;;;;;0.70;0.20;;;;;;;25.33;53.54;99225.83;1662445;84;21362;-58
2021/06/21 07:09:38;;;;;;;0.57;0.30;;;;;;;25.39;52.99;99222.86;1662850;84;21372;-55
2021/06/21 07:12:06;;;;;;;2.17;0.30;;;;;;;25.45;52.46;99222.98;1666555;84;21666;-57
2021/06/21 07:14:34;;;;;;;1.25;0.40;;;;;;;25.44;52.31;99224.53;1660555;84;20934;-56
2021/06/21 07:17:02;;;;;;;3.92;0.50;;;;;;;25.45;52.65;99222.13;1679675;83;21000;-57
2021/06/21 07:19:28;;;;;;;1.87;0.40;;;;;;;25.49;52.53;99216.09;1676159;84;21004;-57
2021/06/21 07:21:55;;;;;;;3.67;0.30;;;;;;;25.52;52.00;99228.09;1675169;83;20943;-58
2021/06/21 07:24:22;;;;;;;2.75;0.40;;;;;;;25.55;51.93;99223.61;1676973;83;21477;-59
2021/06/21 07:26:49;;;;;;;0.85;0.35;;;;;;;25.62;52.00;99216.36;1679517;83;21402;-57
2021/06/21 07:29:16;;;;;;;2.33;0.40;;;;;;;25.68;51.83;99219.45;1679673;83;21944;-56
2021/06/21 07:31:42;;;;;;;2.22;0.33;;;;;;;25.72;52.36;99210.61;1676753;83;20978;-56
2021/06/21 07:34:09;;;;;;;1.25;0.30;;;;;;;25.80;52.42;99205.03;1677776;83;21011;-59
2021/06/21 07:36:35;;;;;;;0.65;0.30;;;;;;;25.90;52.31;99207.55;1672925;83;21157;-57
2021/06/21 07:39:06;;;;;;;3.35;0.30;;;;;;;25.99;51.86;99200.92;1675964;83;20946;-57
2021/06/21 07:41:32;;;;;;;0.45;0.30;;;;;;;26.05;52.24;99213.95;1675317;83;21503;-57
2021/06/21 07:44:00;;;;;;;1.75;0.30;;;;;;;26.13;52.22;99213.03;1673723;83;21062;-56
2021/06/21 07:46:27;;;;;;;3.90;0.40;;;;;;;26.20;51.91;99212.09;1671441;83;21062;-57
2021/06/21 07:48:54;;;;;;;1.15;0.40;;;;;;;26.27;51.11;99210.88;1665068;84;21165;-59
2021/06/21 07:51:21;;;;;;;1.17;0.50;;;;;;;26.34;50.88;99212.70;1663983;84;21089;-59
2021/06/21 07:53:51;;;;;;;2.35;0.30;;;;;;;26.38;51.06;99205.74;1662385;84;21085;-58
2021/06/21 07:56:16;;;;;;;3.08;0.53;;;;;;;26.47;50.94;99211.17;1664912;84;21074;-59
2021/06/21 07:58:42;;;;;;;3.67;0.35;;;;;;;26.56;50.73;99199.00;1709938;82;21053;-58
2021/06/21 08:01:12;;;;;;;2.12;0.30;;;;;;;26.64;50.67;99197.02;1707167;82;21808;-57
2021/06/21 08:03:40;;;;;;;2.80;0.30;;;;;;;26.73;49.95;99203.30;1705164;82;21038;-59
2021/06/21 08:06:09;;;;;;;4.42;0.40;;;;;;;26.76;50.20;99208.45;1670424;84;21180;-59
2021/06/21 08:08:36;;;;;;;1.05;0.30;;;;;;;26.82;50.42;99215.10;1711258;82;21369;-59
2021/06/21 08:11:04;;;;;;;3.05;0.30;;;;;;;26.86;50.42;99220.07;1710069;82;21010;-56
2021/06/21 08:13:30;;;;;;;8.48;0.40;;;;;;;26.93;50.47;99221.56;1676276;84;21581;-60
2021/06/21 08:15:56;;;;;;;8.33;0.50;;;;;;;26.97;49.72;99216.84;1709597;82;21418;-56
2021/06/21 08:18:23;;;;;;;2.75;0.40;;;;;;;27.02;50.10;99210.23;1707929;82;21399;-57
2021/06/21 08:20:49;;;;;;;0.72;0.40;;;;;;;27.09;49.74;99208.41;1708680;82;21643;-60
2021/06/21 08:23:16;;;;;;;1.57;0.30;;;;;;;27.15;49.75;99208.67;1708980;82;21030;-58
2021/06/21 08:25:43;;;;;;;1.67;0.30;;;;;;;27.21;49.60;99203.78;1704325;82;22200;-59
2021/06/21 08:28:09;;;;;;;3.08;0.40;;;;;;;27.22;50.10;99206.88;1708820;82;21595;-59
2021/06/21 08:30:38;;;;;;;1.15;0.35;;;;;;;27.24;49.30;99201.99;1708583;82;21030;-57
2021/06/21 08:33:05;;;;;;;1.45;0.30;;;;;;;27.28;49.00;99208.86;1671063;84;20970;-57
2021/06/21 08:35:32;;;;;;;0.68;0.42;;;;;;;27.32;49.35;99204.64;1674325;84;21050;-59
2021/06/21 08:37:58;;;;;;;1.35;0.30;;;;;;;27.39;48.79;99196.75;1705088;82;21088;-58
2021/06/21 08:40:27;;;;;;;2.87;0.40;;;;;;;27.47;48.77;99199.95;1704840;82;21482;-56
2021/06/21 08:42:53;;;;;;;1.67;0.30;;;;;;;27.54;48.86;99198.15;1671076;83;22340;-58
2021/06/21 08:45:20;;;;;;;1.27;0.23;;;;;;;27.60;47.70;99196.50;1708217;82;21109;-58
2021/06/21 08:47:46;;;;;;;4.72;0.30;;;;;;;27.61;47.90;99199.59;1712605;82;21042;-58
2021/06/21 08:50:14;;;;;;;1.90;0.20;;;;;;;27.61;48.75;99198.22;1673668;84;21593;-58
2021/06/21 08:52:43;;;;;;;3.95;0.40;;;;;;;27.63;46.91;99206.66;1701878;82;21826;-59
2021/06/21 08:55:12;;;;;;;0.50;0.30;;;;;;;27.60;46.63;99202.03;1671123;84;21127;-58
2021/06/21 08:57:43;;;;;;;1.80;0.30;;;;;;;27.56;47.15;99208.45;1672541;83;20990;-57
2021/06/21 09:00:11;;;;;;;0.60;0.30;;;;;;;27.57;47.46;99210.17;1704766;82;21055;-57
2021/06/21 09:02:37;;;;;;;5.40;0.50;;;;;;;27.60;47.39;99210.32;1709980;82;21082;-56
2021/06/21 09:05:09;;;;;;;2.40;0.33;;;;;;;27.64;47.33;99215.28;1672899;84;21240;-57
2021/06/21 09:07:35;;;;;;;0.85;0.30;;;;;;;27.70;47.02;99209.48;1709407;82;21554;-57
2021/06/21 09:10:11;;;;;;;4.33;0.40;;;;;;;27.74;46.53;99211.64;1711658;82;20911;-57
2021/06/21 09:12:37;;;;;;;3.85;0.30;;;;;;;27.78;46.70;99212.11;1711444;82;21284;-57
2021/06/21 09:15:09;;;;;;;3.10;0.35;;;;;;;27.81;46.58;99207.06;1711632;82;21319;-57
2021/06/21 09:17:38;;;;;;;3.47;0.30;;;;;;;27.88;46.65;99206.27;1673372;83;21071;-54
2021/06/21 09:20:08;;;;;;;1.00;0.30;;;;;;;27.93;45.58;99206.52;1705092;82;22147;-57
2021/06/21 09:22:42;;;;;;;11.43;0.70;;;;;;;27.96;45.86;99208.89;1708706;82;21038;-58
2021/06/21 09:25:20;;;;;;;4.40;0.33;;;;;;;28.00;46.75;99212.95;1706518;82;21097;-57
2021/06/21 09:28:01;;;;;;;4.17;0.30;;;;;;;28.09;46.33;99211.77;1705370;82;21809;-58
2021/06/21 09:30:29;;;;;;;4.92;0.37;;;;;;;28.14;46.00;99212.05;1708503;82;22097;-59
2021/06/21 09:32:58;;;;;;;0.90;0.40;;;;;;;28.18;46.53;99211.46;1677165;83;20906;-59
2021/06/21 09:35:38;;;;;;;1.80;0.37;;;;;;;28.23;46.64;99215.03;1675575;84;21378;-58
2021/06/21 09:38:15;;;;;;;0.60;0.40;;;;;;;28.27;45.94;99217.71;1676132;83;21346;-57
2021/06/21 09:40:51;;;;;;;2.05;0.30;;;;;;;28.26;45.54;99218.77;1674215;84;21764;-59
2021/06/21 09:43:29;;;;;;;1.05;0.35;;;;;;;28.28;45.48;99215.80;1672964;84;21081;-58
2021/06/21 09:46:18;;;;;;;2.27;0.35;;;;;;;28.31;45.82;99214.88;1702821;82;21030;-57
2021/06/21 09:48:53;;;;;;;2.00;0.40;;;;;;;28.32;45.29;99220.75;1709653;82;21316;-56
2021/06/21 09:51:34;;;;;;;3.35;0.42;;;;;;;28.30;45.83;99226.15;1710827;82;21923;-58
2021/06/21 09:54:13;;;;;;;2.55;0.35;;;;;;;28.30;45.33;99220.09;1675367;84;22349;-58
2021/06/21 09:56:50;;;;;;;1.87;0.42;;;;;;;28.36;45.37;99227.58;1710087;82;20998;-57
2021/06/21 09:59:33;;;;;;;3.58;0.33;;;;;;;28.44;44.89;99231.58;1676169;83;20863;-58
2021/06/21 10:02:10;;;;;;;1.00;0.40;;;;;;;28.48;44.39;99232.91;1712424;82;20974;-57
2021/06/21 10:04:39;;;;;;;1.30;0.40;;;;;;;28.50;45.04;99236.31;1708002;82;20939;-57
2021/06/21 10:07:06;;;;;;;8.80;0.53;;;;;;;28.56;44.52;99241.06;1702453;82;21102;-57
2021/06/21 10:09:34;;;;;;;4.62;0.42;;;;;;;28.61;44.74;99240.45;1699268;82;21046;-55
2021/06/21 10:12:01;;;;;;;3.15;0.30;;;;;;;28.66;44.56;99234.31;1672268;82;21042;-58
2021/06/21 10:14:28;;;;;;;16.77;0.60;;;;;;;28.69;44.89;99233.36;1710044;82;21466;-59
2021/06/21 10:16:55;;;;;;;2.33;0.40;;;;;;;28.73;44.54;99226.91;1707471;82;21109;-57
2021/06/21 10:19:21;;;;;;;2.80;0.30;;;;;;;28.79;43.98;99226.12;1713515;82;20923;-56
2021/06/21 10:21:53;;;;;;;3.22;0.30;;;;;;;28.84;43.70;99234.66;1706769;82;20884;-55
2021/06/21 10:24:19;;;;;;;3.12;0.40;;;;;;;28.89;42.90;99235.78;1673956;83;21115;-56
2021/06/21 10:26:49;;;;;;;1.17;0.30;;;;;;;28.91;43.39;99244.75;1710016;82;21136;-57
2021/06/21 10:29:15;;;;;;;1.90;0.30;;;;;;;28.90;43.09;99237.49;1670658;83;21069;-57
2021/06/21 10:31:42;;;;;;;1.12;0.75;;;;;;;28.92;43.40;99239.50;1670159;83;22885;-57
2021/06/21 10:34:08;;;;;;;3.83;0.40;;;;;;;28.93;43.20;99247.29;1676739;83;22139;-58
2021/06/21 10:36:43;;;;;;;1.27;0.40;;;;;;;28.92;43.34;99246.43;1713066;82;21140;-57
2021/06/21 10:39:21;;;;;;;2.15;0.62;;;;;;;28.93;43.16;99245.38;1707721;82;20978;-61
2021/06/21 10:42:11;;;;;;;2.15;0.30;;;;;;;28.93;43.08;99241.22;1711448;80;20974;-57
2021/06/21 10:44:56;;;;;;;1.95;0.30;;;;;;;28.86;43.43;99242.24;1710189;82;21114;-58
2021/06/21 10:47:39;;;;;;;1.35;0.40;;;;;;;28.82;44.30;99235.41;1705616;82;21085;-56
2021/06/21 10:50:20;;;;;;;5.45;0.40;;;;;;;28.74;44.32;99235.55;1670426;83;21110;-57
2021/06/21 10:52:55;;;;;;;1.40;0.40;;;;;;;28.72;44.75;99225.19;1703972;82;21525;-56
2021/06/21 10:55:32;;;;;;;3.17;0.50;;;;;;;28.73;45.51;99233.30;1708049;82;21042;-58
2021/06/21 10:58:22;;;;;;;3.12;0.40;;;;;;;28.75;45.20;99236.70;1706160;82;21630;-55
2021/06/21 11:00:50;;;;;;;5.90;0.40;;;;;;;28.79;45.10;99240.82;1704631;82;21117;-54
2021/06/21 11:03:34;;;;;;;4.75;0.40;;;;;;;28.86;44.65;99237.56;1710283;82;21045;-57
2021/06/21 11:06:10;;;;;;;0.98;0.37;;;;;;;28.91;44.51;99239.73;1710655;82;20966;-57
2021/06/21 11:08:46;;;;;;;5.28;0.50;;;;;;;28.95;44.42;99233.56;1705200;82;21082;-57
2021/06/21 11:11:42;;;;;;;1.95;0.47;;;;;;;29.01;45.03;99246.30;1709808;82;21151;-55
2021/06/21 11:14:08;;;;;;;4.03;0.40;;;;;;;29.07;45.09;99247.72;1710287;82;21074;-57
2021/06/21 11:16:35;;;;;;;7.72;0.53;;;;;;;29.13;44.71;99239.95;1709039;82;21561;-57
2021/06/21 11:19:24;;;;;;;21.17;0.85;;;;;;;29.20;44.78;99235.83;1707953;82;21065;-58
2021/06/21 11:21:57;;;;;;;4.37;0.57;;;;;;;29.25;44.96;99241.63;1709696;82;21494;-56
2021/06/21 11:24:46;;;;;;;2.20;0.30;;;;;;;29.30;43.80;99246.87;1709079;82;21133;-56
2021/06/21 11:27:21;;;;;;;1.47;1.27;;;;;;;29.32;43.53;99246.66;1712023;82;21457;-55
2021/06/21 11:29:56;;;;;;;0.90;0.47;;;;;;;29.32;43.64;99246.66;1708210;82;21051;-56
2021/06/21 11:32:23;;;;;;;3.80;0.40;;;;;;;29.33;43.84;99250.62;1708881;82;21118;-57
2021/06/21 11:35:03;;;;;;;2.60;0.37;;;;;;;29.35;43.32;99246.23;1707814;82;21061;-55
2021/06/21 11:37:42;;;;;;;3.70;0.68;;;;;;;29.33;43.51;99250.62;1713265;82;21555;-57
2021/06/21 11:40:22;;;;;;;3.58;0.45;;;;;;;29.32;44.21;99236.44;1707815;82;21439;-58
2021/06/21 11:43:06;;;;;;;1.92;0.40;;;;;;;29.35;44.51;99255.44;1710415;82;21089;-54
2021/06/21 11:45:58;;;;;;;5.33;0.45;;;;;;;29.38;43.89;99240.32;1673172;84;21074;-57
2021/06/21 11:50:15;;;;;;;4.15;0.40;;;;;;;29.49;44.25;99248.05;1773827;78;22821;-55
2021/06/21 11:52:40;;;;;;;2.98;0.42;;;;;;;29.48;44.28;99244.09;1743356;80;20944;-57
2021/06/21 11:55:16;;;;;;;1.52;0.40;;;;;;;29.53;44.99;99246.55;1747907;80;21193;-59